createdAt,value
2023-10-19T00:00:01.965Z,947.30
2023-10-19T00:01:01.841Z,947.29
2023-10-19T00:02:02.108Z,947.29
2023-10-19T00:03:01.907Z,947.30
2023-10-19T00:04:01.997Z,947.27
2023-10-19T00:05:01.765Z,947.30
2023-10-19T00:06:01.780Z,947.28
2023-10-19T00:07:01.762Z,947.29
2023-10-19T00:08:01.754Z,947.27
2023-10-19T00:09:01.728Z,947.31
2023-10-19T00:10:01.746Z,947.29
2023-10-19T00:11:01.706Z,947.30
2023-10-19T00:12:01.718Z,947.28
2023-10-19T00:13:01.670Z,947.30
2023-10-19T00:14:01.745Z,947.30
2023-10-19T00:15:02.031Z,947.34
2023-10-19T00:16:01.653Z,947.33
2023-10-19T00:17:01.838Z,947.34
2023-10-19T00:18:01.772Z,947.34
2023-10-19T00:19:01.695Z,947.32
2023-10-19T00:20:01.630Z,947.31
2023-10-19T00:21:01.686Z,947.35
2023-10-19T00:22:01.651Z,947.37
2023-10-19T00:23:01.628Z,947.33
2023-10-19T00:24:01.578Z,947.34
2023-10-19T00:25:01.605Z,947.36
2023-10-19T00:26:01.591Z,947.33
2023-10-19T00:27:01.677Z,947.31
2023-10-19T00:28:01.529Z,947.30
2023-10-19T00:29:01.563Z,947.23
2023-10-19T00:30:01.511Z,947.21
2023-10-19T00:31:01.598Z,947.17
2023-10-19T00:32:01.708Z,947.12
2023-10-19T00:33:01.588Z,947.13
2023-10-19T00:34:01.454Z,947.15
2023-10-19T00:35:01.483Z,947.16
2023-10-19T00:36:01.449Z,947.14
2023-10-19T00:37:01.435Z,947.13
2023-10-19T00:38:01.478Z,947.10
2023-10-19T00:39:01.438Z,947.10
2023-10-19T00:40:01.430Z,947.10
2023-10-19T00:41:01.452Z,947.09
2023-10-19T00:42:01.408Z,947.06
2023-10-19T00:43:01.506Z,947.08
2023-10-19T00:44:01.425Z,947.03
2023-10-19T00:45:01.482Z,947.03
2023-10-19T00:46:01.552Z,946.96
2023-10-19T00:47:01.494Z,946.93
2023-10-19T00:48:01.511Z,946.96
2023-10-19T00:49:01.419Z,946.95
2023-10-19T00:50:01.451Z,946.93
2023-10-19T00:51:01.324Z,946.91
2023-10-19T00:52:01.313Z,946.88
2023-10-19T00:53:01.365Z,946.85
2023-10-19T00:54:01.267Z,946.81
2023-10-19T00:55:01.475Z,946.80
2023-10-19T00:56:01.303Z,946.78
2023-10-19T00:57:01.269Z,946.76
2023-10-19T00:58:01.251Z,946.77
2023-10-19T00:59:01.270Z,946.77
2023-10-19T01:00:01.294Z,946.78
2023-10-19T01:01:01.189Z,946.76
2023-10-19T01:02:01.231Z,946.77
2023-10-19T01:03:01.747Z,946.74
2023-10-19T01:04:01.170Z,946.74
2023-10-19T01:05:01.153Z,946.73
2023-10-19T01:06:01.158Z,946.71
2023-10-19T01:07:01.170Z,946.70
2023-10-19T01:08:01.134Z,946.67
2023-10-19T01:09:01.120Z,946.67
2023-10-19T01:10:01.104Z,946.64
2023-10-19T01:11:01.249Z,946.62
2023-10-19T01:12:01.078Z,946.59
2023-10-19T01:13:01.130Z,946.58
2023-10-19T01:14:01.049Z,946.57
2023-10-19T01:15:01.081Z,946.58
2023-10-19T01:16:01.028Z,946.56
2023-10-19T01:17:01.103Z,946.54
2023-10-19T01:18:01.089Z,946.53
2023-10-19T01:19:01.036Z,946.50
2023-10-19T01:20:01.000Z,946.52
2023-10-19T01:21:01.017Z,946.50
2023-10-19T01:22:01.003Z,946.49
2023-10-19T01:23:01.033Z,946.49
2023-10-19T01:24:00.997Z,946.47
2023-10-19T01:25:00.994Z,946.41
2023-10-19T01:26:01.136Z,946.39
2023-10-19T01:27:01.018Z,946.37
2023-10-19T01:28:00.910Z,946.34
2023-10-19T01:29:00.900Z,946.33
2023-10-19T01:30:00.876Z,946.35
2023-10-19T01:31:00.913Z,946.35
2023-10-19T01:32:00.915Z,946.35
2023-10-19T01:33:00.905Z,946.34
2023-10-19T01:34:00.849Z,946.32
2023-10-19T01:35:00.958Z,946.29
2023-10-19T01:36:00.823Z,946.31
2023-10-19T01:37:00.920Z,946.31
2023-10-19T01:38:00.806Z,946.29
2023-10-19T01:39:00.788Z,946.30
2023-10-19T01:40:00.788Z,946.30
2023-10-19T01:41:00.795Z,946.33
2023-10-19T01:42:00.771Z,946.29
2023-10-19T01:43:00.784Z,946.29
2023-10-19T01:44:00.794Z,946.27
2023-10-19T01:45:00.790Z,946.26
2023-10-19T01:46:00.726Z,946.24
2023-10-19T01:47:00.796Z,946.21
2023-10-19T01:48:00.709Z,946.23
2023-10-19T01:49:00.699Z,946.25
2023-10-19T01:50:00.693Z,946.23
2023-10-19T01:51:00.719Z,946.22
2023-10-19T01:52:00.648Z,946.20
2023-10-19T01:53:00.647Z,946.19
2023-10-19T01:54:00.648Z,946.17
2023-10-19T01:55:00.680Z,946.20
2023-10-19T01:56:00.602Z,946.22
2023-10-19T01:57:00.682Z,946.20
2023-10-19T01:58:00.671Z,946.19
2023-10-19T01:59:00.584Z,946.19
2023-10-19T02:00:00.609Z,946.18
2023-10-19T02:01:00.609Z,946.18
2023-10-19T02:02:00.670Z,946.17
2023-10-19T02:03:00.642Z,946.18
2023-10-19T02:04:01.023Z,946.18
2023-10-19T02:05:00.570Z,946.17
2023-10-19T02:06:00.621Z,946.16
2023-10-19T02:07:00.515Z,946.16
2023-10-19T02:08:00.531Z,946.15
2023-10-19T02:09:00.499Z,946.14
2023-10-19T02:10:00.523Z,946.11
2023-10-19T02:11:00.488Z,946.09
2023-10-19T02:12:00.451Z,946.09
2023-10-19T02:13:00.473Z,946.11
2023-10-19T02:14:00.445Z,946.13
2023-10-19T02:15:00.453Z,946.11
2023-10-19T02:16:00.433Z,946.11
2023-10-19T02:17:00.905Z,946.11
2023-10-19T02:18:00.420Z,946.08
2023-10-19T02:19:00.552Z,946.07
2023-10-19T02:20:00.448Z,946.07
2023-10-19T02:21:00.411Z,946.07
2023-10-19T02:22:00.365Z,946.08
2023-10-19T02:23:00.416Z,946.05
2023-10-19T02:24:00.314Z,946.06
2023-10-19T02:25:00.365Z,946.04
2023-10-19T02:26:00.322Z,946.02
2023-10-19T02:27:00.348Z,946.01
2023-10-19T02:28:00.345Z,945.98
2023-10-19T02:29:00.279Z,945.97
2023-10-19T02:30:00.312Z,945.96
2023-10-19T02:31:00.323Z,945.95
2023-10-19T02:32:00.309Z,945.95
2023-10-19T02:33:00.416Z,945.92
2023-10-19T02:34:01.012Z,945.92
2023-10-19T02:35:00.293Z,945.91
2023-10-19T02:36:00.230Z,945.89
2023-10-19T02:37:00.219Z,945.89
2023-10-19T02:38:00.235Z,945.89
2023-10-19T02:39:00.245Z,945.88
2023-10-19T02:40:00.242Z,945.89
2023-10-19T02:41:00.161Z,945.86
2023-10-19T02:42:00.253Z,945.86
2023-10-19T02:43:00.160Z,945.86
2023-10-19T02:44:00.148Z,945.86
2023-10-19T02:45:00.189Z,945.85
2023-10-19T02:46:00.147Z,945.84
2023-10-19T02:47:01.025Z,945.84
2023-10-19T02:48:00.175Z,945.83
2023-10-19T02:49:00.072Z,945.84
2023-10-19T02:50:00.150Z,945.86
2023-10-19T02:51:02.774Z,945.84
2023-10-19T02:52:00.081Z,945.81
2023-10-19T02:53:00.127Z,945.79
2023-10-19T02:54:00.073Z,945.77
2023-10-19T02:55:00.082Z,945.77
2023-10-19T02:56:00.116Z,945.76
2023-10-19T02:57:00.241Z,945.75
2023-10-19T02:58:00.004Z,945.77
2023-10-19T02:58:59.984Z,945.74
2023-10-19T03:00:00.109Z,945.75
2023-10-19T03:01:00.155Z,945.76
2023-10-19T03:02:00.008Z,945.77
2023-10-19T03:03:00.033Z,945.72
2023-10-19T03:03:59.926Z,945.69
2023-10-19T03:05:00.065Z,945.71
2023-10-19T03:06:00.008Z,945.75
2023-10-19T03:06:59.920Z,945.72
2023-10-19T03:07:59.891Z,945.69
2023-10-19T03:08:59.892Z,945.68
2023-10-19T03:09:59.893Z,945.67
2023-10-19T03:10:59.860Z,945.64
2023-10-19T03:11:59.970Z,945.62
2023-10-19T03:12:59.875Z,945.57
2023-10-19T03:13:59.850Z,945.54
2023-10-19T03:14:59.847Z,945.54
2023-10-19T03:15:59.815Z,945.51
2023-10-19T03:16:59.868Z,945.50
2023-10-19T03:17:59.822Z,945.48
2023-10-19T03:18:59.908Z,945.47
2023-10-19T03:19:59.857Z,945.48
2023-10-19T03:20:59.798Z,945.48
2023-10-19T03:21:59.768Z,945.48
2023-10-19T03:22:59.798Z,945.50
2023-10-19T03:23:59.721Z,945.48
2023-10-19T03:24:59.746Z,945.45
2023-10-19T03:25:59.755Z,945.47
2023-10-19T03:26:59.739Z,945.47
2023-10-19T03:27:59.810Z,945.48
2023-10-19T03:28:59.692Z,945.47
2023-10-19T03:29:59.732Z,945.49
2023-10-19T03:30:59.736Z,945.47
2023-10-19T03:31:59.781Z,945.48
2023-10-19T03:32:59.812Z,945.47
2023-10-19T03:33:59.646Z,945.47
2023-10-19T03:34:59.825Z,945.46
2023-10-19T03:35:59.592Z,945.44
2023-10-19T03:36:59.635Z,945.43
2023-10-19T03:37:59.602Z,945.42
2023-10-19T03:38:59.603Z,945.42
2023-10-19T03:39:59.737Z,945.42
2023-10-19T03:40:59.556Z,945.43
2023-10-19T03:41:59.593Z,945.43
2023-10-19T03:42:59.569Z,945.40
2023-10-19T03:43:59.549Z,945.39
2023-10-19T03:44:59.559Z,945.39
2023-10-19T03:45:59.534Z,945.40
2023-10-19T03:46:59.666Z,945.38
2023-10-19T03:47:59.531Z,945.33
2023-10-19T03:48:59.500Z,945.34
2023-10-19T03:49:59.485Z,945.32
2023-10-19T03:50:59.457Z,945.31
2023-10-19T03:51:59.564Z,945.29
2023-10-19T03:52:59.528Z,945.27
2023-10-19T03:53:59.424Z,945.26
2023-10-19T03:54:59.416Z,945.24
2023-10-19T03:55:59.479Z,945.24
2023-10-19T03:56:59.409Z,945.23
2023-10-19T03:57:59.370Z,945.22
2023-10-19T03:58:59.419Z,945.21
2023-10-19T03:59:59.434Z,945.20
2023-10-19T04:00:59.340Z,945.17
2023-10-19T04:01:59.429Z,945.16
2023-10-19T04:02:59.548Z,945.12
2023-10-19T04:04:01.933Z,945.07
2023-10-19T04:04:59.554Z,945.06
2023-10-19T04:05:59.381Z,945.04
2023-10-19T04:06:59.409Z,945.03
2023-10-19T04:07:59.345Z,944.99
2023-10-19T04:08:59.247Z,944.98
2023-10-19T04:09:59.341Z,944.98
2023-10-19T04:10:59.342Z,944.97
2023-10-19T04:11:59.250Z,944.95
2023-10-19T04:12:59.243Z,944.95
2023-10-19T04:13:59.205Z,944.95
2023-10-19T04:14:59.243Z,944.93
2023-10-19T04:15:59.221Z,944.93
2023-10-19T04:16:59.266Z,944.93
2023-10-19T04:17:59.225Z,944.94
2023-10-19T04:18:59.210Z,944.94
2023-10-19T04:19:59.158Z,944.95
2023-10-19T04:20:59.386Z,944.94
2023-10-19T04:21:59.187Z,944.92
2023-10-19T04:22:59.310Z,944.91
2023-10-19T04:23:59.145Z,944.91
2023-10-19T04:24:59.150Z,944.91
2023-10-19T04:25:59.378Z,944.93
2023-10-19T04:26:59.099Z,944.93
2023-10-19T04:27:59.073Z,944.91
2023-10-19T04:28:59.086Z,944.90
2023-10-19T04:29:59.172Z,944.89
2023-10-19T04:30:59.070Z,944.85
2023-10-19T04:31:59.119Z,944.85
2023-10-19T04:32:59.553Z,944.84
2023-10-19T04:33:59.055Z,944.84
2023-10-19T04:34:59.069Z,944.84
2023-10-19T04:35:58.988Z,944.84
2023-10-19T04:36:59.003Z,944.85
2023-10-19T04:37:59.059Z,944.84
2023-10-19T04:38:58.934Z,944.78
2023-10-19T04:39:58.937Z,944.75
2023-10-19T04:40:58.925Z,944.75
2023-10-19T04:41:58.982Z,944.78
2023-10-19T04:42:58.977Z,944.81
2023-10-19T04:43:58.942Z,944.79
2023-10-19T04:44:58.899Z,944.80
2023-10-19T04:45:58.913Z,944.81
2023-10-19T04:46:58.995Z,944.79
2023-10-19T04:47:58.905Z,944.79
2023-10-19T04:48:58.959Z,944.79
2023-10-19T04:49:58.994Z,944.78
2023-10-19T04:50:58.814Z,944.75
2023-10-19T04:51:58.949Z,944.74
2023-10-19T04:52:59.274Z,944.73
2023-10-19T04:53:58.815Z,944.74
2023-10-19T04:54:58.850Z,944.73
2023-10-19T04:55:58.827Z,944.71
2023-10-19T04:56:58.773Z,944.70
2023-10-19T04:57:58.765Z,944.69
2023-10-19T04:58:58.836Z,944.67
2023-10-19T04:59:58.820Z,944.69
2023-10-19T05:00:58.719Z,944.69
2023-10-19T05:02:00.898Z,944.69
2023-10-19T05:02:58.884Z,944.65
2023-10-19T05:03:58.735Z,944.62
2023-10-19T05:04:58.701Z,944.63
2023-10-19T05:05:58.678Z,944.61
2023-10-19T05:06:58.724Z,944.60
2023-10-19T05:07:58.741Z,944.62
2023-10-19T05:08:58.647Z,944.63
2023-10-19T05:09:58.633Z,944.64
2023-10-19T05:10:58.698Z,944.62
2023-10-19T05:11:58.644Z,944.60
2023-10-19T05:12:58.561Z,944.59
2023-10-19T05:13:58.646Z,944.59
2023-10-19T05:14:58.620Z,944.60
2023-10-19T05:15:58.602Z,944.58
2023-10-19T05:16:58.681Z,944.57
2023-10-19T05:17:58.608Z,944.57
2023-10-19T05:18:58.517Z,944.57
2023-10-19T05:19:58.508Z,944.58
2023-10-19T05:20:58.544Z,944.58
2023-10-19T05:21:58.476Z,944.60
2023-10-19T05:22:58.546Z,944.60
2023-10-19T05:23:58.455Z,944.60
2023-10-19T05:24:58.432Z,944.59
2023-10-19T05:25:58.483Z,944.60
2023-10-19T05:26:58.438Z,944.60
2023-10-19T05:27:58.410Z,944.61
2023-10-19T05:28:58.475Z,944.61
2023-10-19T05:29:58.380Z,944.63
2023-10-19T05:30:58.389Z,944.62
2023-10-19T05:31:58.424Z,944.61
2023-10-19T05:32:58.391Z,944.60
2023-10-19T05:33:58.350Z,944.59
2023-10-19T05:35:00.922Z,944.59
2023-10-19T05:35:58.330Z,944.59
2023-10-19T05:36:58.292Z,944.58
2023-10-19T05:37:58.378Z,944.58
2023-10-19T05:38:58.308Z,944.58
2023-10-19T05:39:58.305Z,944.60
2023-10-19T05:40:58.331Z,944.61
2023-10-19T05:41:58.294Z,944.62
2023-10-19T05:42:58.230Z,944.62
2023-10-19T05:43:58.282Z,944.62
2023-10-19T05:44:58.271Z,944.61
2023-10-19T05:45:58.281Z,944.61
2023-10-19T05:46:58.226Z,944.60
2023-10-19T05:47:58.269Z,944.60
2023-10-19T05:48:58.261Z,944.59
2023-10-19T05:49:58.281Z,944.59
2023-10-19T05:50:58.159Z,944.59
2023-10-19T05:51:58.191Z,944.60
2023-10-19T05:52:58.154Z,944.61
2023-10-19T05:53:58.165Z,944.60
2023-10-19T05:54:58.138Z,944.59
2023-10-19T05:55:58.156Z,944.59
2023-10-19T05:56:58.099Z,944.59
2023-10-19T05:57:58.110Z,944.60
2023-10-19T05:58:58.140Z,944.61
2023-10-19T05:59:58.068Z,944.61
2023-10-19T06:00:58.097Z,944.62
2023-10-19T06:01:58.139Z,944.63
2023-10-19T06:02:58.145Z,944.63
2023-10-19T06:03:58.075Z,944.64
2023-10-19T06:04:58.063Z,944.65
2023-10-19T06:05:58.038Z,944.66
2023-10-19T06:06:57.991Z,944.66
2023-10-19T06:07:58.058Z,944.66
2023-10-19T06:08:57.969Z,944.67
2023-10-19T06:09:57.966Z,944.69
2023-10-19T06:10:57.976Z,944.70
2023-10-19T06:11:57.955Z,944.71
2023-10-19T06:12:57.986Z,944.70
2023-10-19T06:13:57.966Z,944.70
2023-10-19T06:14:57.915Z,944.70
2023-10-19T06:15:57.983Z,944.70
2023-10-19T06:16:57.980Z,944.70
2023-10-19T06:17:58.074Z,944.71
2023-10-19T06:18:57.919Z,944.71
2023-10-19T06:19:58.003Z,944.72
2023-10-19T06:20:57.861Z,944.72
2023-10-19T06:21:57.862Z,944.72
2023-10-19T06:22:58.013Z,944.72
2023-10-19T06:23:57.838Z,944.72
2023-10-19T06:24:57.821Z,944.72
2023-10-19T06:25:57.829Z,944.73
2023-10-19T06:26:57.805Z,944.73
2023-10-19T06:27:57.773Z,944.72
2023-10-19T06:28:57.908Z,944.73
2023-10-19T06:29:57.784Z,944.74
2023-10-19T06:30:57.756Z,944.73
2023-10-19T06:31:57.922Z,944.74
2023-10-19T06:32:58.010Z,944.74
2023-10-19T06:33:57.738Z,944.75
2023-10-19T06:34:57.741Z,944.74
2023-10-19T06:35:57.747Z,944.75
2023-10-19T06:36:57.725Z,944.75
2023-10-19T06:37:57.713Z,944.75
2023-10-19T06:38:57.732Z,944.76
2023-10-19T06:39:57.658Z,944.77
2023-10-19T06:40:57.711Z,944.75
2023-10-19T06:41:57.640Z,944.75
2023-10-19T06:42:57.631Z,944.76
2023-10-19T06:43:57.639Z,944.75
2023-10-19T06:44:57.607Z,944.75
2023-10-19T06:45:57.680Z,944.75
2023-10-19T06:46:57.601Z,944.74
2023-10-19T06:47:58.188Z,944.73
2023-10-19T06:48:57.562Z,944.72
2023-10-19T06:49:57.581Z,944.71
2023-10-19T06:50:57.556Z,944.70
2023-10-19T06:51:57.530Z,944.72
2023-10-19T06:52:57.579Z,944.72
2023-10-19T06:53:57.544Z,944.72
2023-10-19T06:54:57.540Z,944.73
2023-10-19T06:55:57.555Z,944.72
2023-10-19T06:56:57.473Z,944.71
2023-10-19T06:57:57.504Z,944.69
2023-10-19T06:58:57.548Z,944.68
2023-10-19T06:59:57.465Z,944.68
2023-10-19T07:00:57.446Z,944.66
2023-10-19T07:01:57.592Z,944.66
2023-10-19T07:02:57.457Z,944.66
2023-10-19T07:03:57.499Z,944.68
2023-10-19T07:04:57.399Z,944.67
2023-10-19T07:05:57.432Z,944.68
2023-10-19T07:06:57.364Z,944.71
2023-10-19T07:07:57.467Z,944.72
2023-10-19T07:08:57.359Z,944.74
2023-10-19T07:09:57.350Z,944.72
2023-10-19T07:10:57.445Z,944.70
2023-10-19T07:11:57.322Z,944.68
2023-10-19T07:12:57.356Z,944.69
2023-10-19T07:13:57.364Z,944.71
2023-10-19T07:14:57.300Z,944.70
2023-10-19T07:15:57.357Z,944.72
2023-10-19T07:16:57.321Z,944.71
2023-10-19T07:17:57.319Z,944.70
2023-10-19T07:18:57.299Z,944.70
2023-10-19T07:19:57.331Z,944.69
2023-10-19T07:20:57.245Z,944.69
2023-10-19T07:21:57.229Z,944.66
2023-10-19T07:22:57.289Z,944.63
2023-10-19T07:23:57.199Z,944.62
2023-10-19T07:24:57.191Z,944.62
2023-10-19T07:25:57.236Z,944.63
2023-10-19T07:26:57.213Z,944.62
2023-10-19T07:27:57.267Z,944.63
2023-10-19T07:28:57.161Z,944.64
2023-10-19T07:29:57.159Z,944.66
2023-10-19T07:30:57.483Z,944.68
2023-10-19T07:31:57.267Z,944.67
2023-10-19T07:32:57.162Z,944.64
2023-10-19T07:33:57.143Z,944.61
2023-10-19T07:34:57.096Z,944.59
2023-10-19T07:35:57.096Z,944.58
2023-10-19T07:36:57.079Z,944.58
2023-10-19T07:37:57.146Z,944.58
2023-10-19T07:38:57.046Z,944.58
2023-10-19T07:39:57.068Z,944.60
2023-10-19T07:40:57.404Z,944.59
2023-10-19T07:41:57.110Z,944.60
2023-10-19T07:42:57.021Z,944.61
2023-10-19T07:43:57.017Z,944.61
2023-10-19T07:44:57.008Z,944.60
2023-10-19T07:45:57.074Z,944.59
2023-10-19T07:46:57.039Z,944.58
2023-10-19T07:47:57.009Z,944.58
2023-10-19T07:48:56.991Z,944.57
2023-10-19T07:49:56.988Z,944.56
2023-10-19T07:50:56.934Z,944.56
2023-10-19T07:51:58.524Z,944.56
2023-10-19T07:52:57.012Z,944.54
2023-10-19T07:53:56.944Z,944.52
2023-10-19T07:54:56.915Z,944.51
2023-10-19T07:55:56.986Z,944.49
2023-10-19T07:56:56.888Z,944.47
2023-10-19T07:57:56.886Z,944.46
2023-10-19T07:58:56.914Z,944.45
2023-10-19T07:59:56.870Z,944.45
2023-10-19T08:00:56.942Z,944.43
2023-10-19T08:01:56.902Z,944.42
2023-10-19T08:02:56.878Z,944.42
2023-10-19T08:03:56.867Z,944.41
2023-10-19T08:04:56.881Z,944.39
2023-10-19T08:05:56.794Z,944.40
2023-10-19T08:06:56.812Z,944.41
2023-10-19T08:07:56.819Z,944.41
2023-10-19T08:08:56.745Z,944.41
2023-10-19T08:09:56.749Z,944.42
2023-10-19T08:10:56.781Z,944.43
2023-10-19T08:11:56.801Z,944.44
2023-10-19T08:12:57.036Z,944.47
2023-10-19T08:13:56.767Z,944.49
2023-10-19T08:14:56.671Z,944.52
2023-10-19T08:15:56.685Z,944.54
2023-10-19T08:16:56.706Z,944.54
2023-10-19T08:17:56.785Z,944.53
2023-10-19T08:18:57.065Z,944.53
2023-10-19T08:19:56.645Z,944.53
2023-10-19T08:20:56.607Z,944.53
2023-10-19T08:21:56.603Z,944.53
2023-10-19T08:22:56.615Z,944.54
2023-10-19T08:23:56.617Z,944.54
2023-10-19T08:24:57.266Z,944.53
2023-10-19T08:25:57.647Z,944.50
2023-10-19T08:26:56.574Z,944.46
2023-10-19T08:27:56.546Z,944.43
2023-10-19T08:28:56.668Z,944.44
2023-10-19T08:29:56.513Z,944.45
2023-10-19T08:30:56.521Z,944.45
2023-10-19T08:31:56.598Z,944.44
2023-10-19T08:32:56.524Z,944.44
2023-10-19T08:33:56.480Z,944.45
2023-10-19T08:34:56.507Z,944.43
2023-10-19T08:35:56.484Z,944.40
2023-10-19T08:36:56.504Z,944.37
2023-10-19T08:37:56.457Z,944.36
2023-10-19T08:38:56.431Z,944.37
2023-10-19T08:39:56.390Z,944.37
2023-10-19T08:40:56.520Z,944.37
2023-10-19T08:41:56.395Z,944.36
2023-10-19T08:42:56.680Z,944.38
2023-10-19T08:43:56.477Z,944.37
2023-10-19T08:44:56.414Z,944.34
2023-10-19T08:45:56.404Z,944.33
2023-10-19T08:46:58.374Z,944.34
2023-10-19T08:47:56.383Z,944.33
2023-10-19T08:48:56.306Z,944.32
2023-10-19T08:49:56.354Z,944.33
2023-10-19T08:50:56.336Z,944.34
2023-10-19T08:51:56.321Z,944.36
2023-10-19T08:52:56.329Z,944.35
2023-10-19T08:53:56.252Z,944.35
2023-10-19T08:54:56.317Z,944.35
2023-10-19T08:55:56.260Z,944.35
2023-10-19T08:56:56.251Z,944.37
2023-10-19T08:57:57.116Z,944.37
2023-10-19T08:58:56.228Z,944.37
2023-10-19T08:59:56.182Z,944.38
2023-10-19T09:00:56.871Z,944.37
2023-10-19T09:01:56.265Z,944.35
2023-10-19T09:02:56.197Z,944.34
2023-10-19T09:03:56.243Z,944.32
2023-10-19T09:04:56.269Z,944.31
2023-10-19T09:05:56.148Z,944.31
2023-10-19T09:06:56.171Z,944.32
2023-10-19T09:07:56.147Z,944.32
2023-10-19T09:08:56.110Z,944.31
2023-10-19T09:09:56.069Z,944.30
2023-10-19T09:10:56.364Z,944.30
2023-10-19T09:11:56.112Z,944.28
2023-10-19T09:12:56.041Z,944.29
2023-10-19T09:13:56.139Z,944.28
2023-10-19T09:14:56.052Z,944.26
2023-10-19T09:15:57.041Z,944.27
2023-10-19T09:16:56.088Z,944.25
2023-10-19T09:17:56.131Z,944.24
2023-10-19T09:18:56.034Z,944.23
2023-10-19T09:19:56.027Z,944.20
2023-10-19T09:20:55.977Z,944.18
2023-10-19T09:21:55.946Z,944.16
2023-10-19T09:22:55.961Z,944.14
2023-10-19T09:23:55.982Z,944.14
2023-10-19T09:24:55.936Z,944.13
2023-10-19T09:25:55.956Z,944.12
2023-10-19T09:26:55.929Z,944.11
2023-10-19T09:27:55.887Z,944.10
2023-10-19T09:28:55.920Z,944.10
2023-10-19T09:29:55.988Z,944.09
2023-10-19T09:30:55.888Z,944.09
2023-10-19T09:31:55.859Z,944.08
2023-10-19T09:32:55.894Z,944.07
2023-10-19T09:33:55.826Z,944.04
2023-10-19T09:34:55.999Z,944.03
2023-10-19T09:35:55.796Z,944.03
2023-10-19T09:36:55.803Z,944.02
2023-10-19T09:37:55.828Z,944.00
2023-10-19T09:38:55.812Z,943.99
2023-10-19T09:39:55.817Z,943.98
2023-10-19T09:40:56.150Z,943.98
2023-10-19T09:41:55.725Z,943.99
2023-10-19T09:42:55.791Z,944.00
2023-10-19T09:43:55.841Z,944.00
2023-10-19T09:44:55.722Z,943.98
2023-10-19T09:45:55.693Z,943.99
2023-10-19T09:46:55.947Z,943.98
2023-10-19T09:47:55.800Z,943.97
2023-10-19T09:48:55.733Z,944.00
2023-10-19T09:49:55.737Z,944.04
2023-10-19T09:50:55.695Z,944.02
2023-10-19T09:52:55.737Z,943.97
2023-10-19T09:53:55.618Z,943.96
2023-10-19T09:54:55.653Z,943.95
2023-10-19T09:55:55.619Z,943.97
2023-10-19T09:56:55.688Z,944.00
2023-10-19T09:57:55.587Z,944.03
2023-10-19T09:58:55.689Z,944.06
2023-10-19T09:59:55.568Z,944.07
2023-10-19T10:00:55.692Z,944.08
2023-10-19T10:01:55.628Z,944.09
2023-10-19T10:02:55.581Z,944.10
2023-10-19T10:03:55.623Z,944.09
2023-10-19T10:04:55.587Z,944.09
2023-10-19T10:05:55.513Z,944.08
2023-10-19T10:06:55.540Z,944.08
2023-10-19T10:07:55.536Z,944.07
2023-10-19T10:08:55.531Z,944.07
2023-10-19T10:09:55.551Z,944.06
2023-10-19T10:10:55.618Z,944.05
2023-10-19T10:11:55.562Z,944.03
2023-10-19T10:12:55.544Z,944.03
2023-10-19T10:13:55.622Z,944.01
2023-10-19T10:14:55.599Z,944.01
2023-10-19T10:15:55.584Z,944.01
2023-10-19T10:16:55.568Z,943.99
2023-10-19T10:17:55.489Z,943.99
2023-10-19T10:18:55.490Z,943.98
2023-10-19T10:19:55.412Z,943.97
2023-10-19T10:20:55.425Z,943.98
2023-10-19T10:21:55.350Z,943.98
2023-10-19T10:22:55.383Z,943.95
2023-10-19T10:23:55.338Z,943.96
2023-10-19T10:24:55.349Z,943.95
2023-10-19T10:25:55.457Z,943.93
2023-10-19T10:26:55.334Z,943.94
2023-10-19T10:27:55.337Z,943.95
2023-10-19T10:28:55.374Z,943.97
2023-10-19T10:29:55.307Z,943.97
2023-10-19T10:30:55.306Z,943.98
2023-10-19T10:31:55.272Z,943.98
2023-10-19T10:32:55.287Z,943.97
2023-10-19T10:33:55.239Z,943.96
2023-10-19T10:34:55.401Z,943.96
2023-10-19T10:35:55.196Z,943.96
2023-10-19T10:36:55.190Z,943.95
2023-10-19T10:37:55.262Z,943.97
2023-10-19T10:38:55.167Z,943.98
2023-10-19T10:39:55.184Z,943.99
2023-10-19T10:40:55.186Z,944.02
2023-10-19T10:41:55.144Z,944.02
2023-10-19T10:42:55.132Z,944.03
2023-10-19T10:43:55.183Z,944.04
2023-10-19T10:44:55.140Z,944.04
2023-10-19T10:45:55.087Z,944.07
2023-10-19T10:46:55.135Z,944.06
2023-10-19T10:47:55.099Z,944.09
2023-10-19T10:48:55.108Z,944.12
2023-10-19T10:49:55.134Z,944.10
2023-10-19T10:50:56.103Z,944.12
2023-10-19T10:51:55.023Z,944.12
2023-10-19T10:52:55.078Z,944.12
2023-10-19T10:53:55.052Z,944.09
2023-10-19T10:54:54.995Z,944.10
2023-10-19T10:55:55.131Z,944.11
2023-10-19T10:56:54.971Z,944.11
2023-10-19T10:57:55.000Z,944.09
2023-10-19T10:58:55.028Z,944.08
2023-10-19T10:59:54.940Z,944.08
2023-10-19T11:00:54.994Z,944.08
2023-10-19T11:01:54.939Z,944.09
2023-10-19T11:02:54.944Z,944.10
2023-10-19T11:03:56.945Z,944.06
2023-10-19T11:04:54.970Z,944.09
2023-10-19T11:05:54.955Z,944.07
2023-10-19T11:06:54.871Z,944.09
2023-10-19T11:07:54.996Z,944.06
2023-10-19T11:08:54.871Z,944.06
2023-10-19T11:09:57.345Z,944.05
2023-10-19T11:10:54.915Z,944.08
2023-10-19T11:11:54.838Z,944.07
2023-10-19T11:12:54.899Z,944.06
2023-10-19T11:13:54.834Z,944.04
2023-10-19T11:14:54.804Z,944.02
2023-10-19T11:15:57.953Z,944.03
2023-10-19T11:16:54.897Z,944.01
2023-10-19T11:17:54.837Z,943.98
2023-10-19T11:18:54.758Z,943.97
2023-10-19T11:19:54.771Z,943.94
2023-10-19T11:20:54.755Z,943.94
2023-10-19T11:21:58.295Z,943.95
2023-10-19T11:22:54.771Z,943.99
2023-10-19T11:23:54.810Z,944.01
2023-10-19T11:24:54.694Z,944.00
2023-10-19T11:25:54.800Z,944.00
2023-10-19T11:26:54.695Z,944.00
2023-10-19T11:27:56.962Z,943.96
2023-10-19T11:28:54.738Z,943.93
2023-10-19T11:29:54.700Z,943.93
2023-10-19T11:30:54.702Z,943.95
2023-10-19T11:31:54.713Z,943.97
2023-10-19T11:32:54.698Z,943.97
2023-10-19T11:33:54.776Z,943.94
2023-10-19T11:34:54.649Z,943.91
2023-10-19T11:35:54.597Z,943.90
2023-10-19T11:36:54.659Z,943.90
2023-10-19T11:37:54.635Z,943.89
2023-10-19T11:38:54.571Z,943.85
2023-10-19T11:39:54.553Z,943.78
2023-10-19T11:40:54.626Z,943.73
2023-10-19T11:41:54.535Z,943.71
2023-10-19T11:42:54.514Z,943.69
2023-10-19T11:43:57.243Z,943.65
2023-10-19T11:44:54.520Z,943.62
2023-10-19T11:45:54.481Z,943.61
2023-10-19T11:46:54.654Z,943.59
2023-10-19T11:47:54.493Z,943.56
2023-10-19T11:48:54.467Z,943.51
2023-10-19T11:49:54.834Z,943.48
2023-10-19T11:50:54.454Z,943.47
2023-10-19T11:51:54.457Z,943.46
2023-10-19T11:52:54.417Z,943.42
2023-10-19T11:53:54.406Z,943.37
2023-10-19T11:54:54.405Z,943.34
2023-10-19T11:55:54.409Z,943.36
2023-10-19T11:56:54.369Z,943.39
2023-10-19T11:57:54.411Z,943.38
2023-10-19T11:58:54.416Z,943.35
2023-10-19T11:59:57.202Z,943.33
2023-10-19T12:00:54.362Z,943.31
2023-10-19T12:01:54.389Z,943.29
2023-10-19T12:02:54.678Z,943.25
2023-10-19T12:03:54.488Z,943.20
2023-10-19T12:04:54.453Z,943.15
2023-10-19T12:05:56.901Z,943.14
2023-10-19T12:06:54.281Z,943.07
2023-10-19T12:07:54.310Z,943.03
2023-10-19T12:08:54.269Z,943.02
2023-10-19T12:09:54.284Z,942.97
2023-10-19T12:10:54.275Z,942.89
2023-10-19T12:11:54.227Z,942.85
2023-10-19T12:13:01.316Z,942.82
2023-10-19T12:13:54.277Z,942.73
2023-10-19T12:14:54.172Z,942.82
2023-10-19T12:15:54.225Z,942.80
2023-10-19T12:16:55.478Z,942.74
2023-10-19T12:17:54.303Z,942.79
2023-10-19T12:18:54.143Z,942.88
2023-10-19T12:19:54.191Z,942.87
2023-10-19T12:20:54.109Z,942.87
2023-10-19T12:21:54.107Z,942.90
2023-10-19T12:22:54.159Z,942.93
2023-10-19T12:23:54.085Z,942.89
2023-10-19T12:24:54.088Z,942.89
2023-10-19T12:25:57.832Z,943.00
2023-10-19T12:26:54.076Z,943.00
2023-10-19T12:27:54.053Z,942.95
2023-10-19T12:28:54.081Z,942.93